»·PEaware :: N688NX KPDX-KSMF

N688NX :: KPDX-KSMF

FLIGHT INFORMATION

Flight Status: Arrived
Operator: Privately registered:
United States
More flights under this callsign
Pilot: Anonymous 1753 (1753)
Aircraft: CANADAIR CL-600 CHALLENGER
(CL60)
More flights by this aircraft type
Origin: KPDX Portland Intl
United States
Destination: KSMF Sacramento Intl
United States
More flights between these airports :: More routes between these airports
Route: HRMNS5 HRMNS HYJOE LMT TUDOR2
File this flight plan on PilotEdge
Remarks:
Altitude:
(Current/Filed)
41,000ft
Speed:
(Current/Filed)
457kts
Departed: 22-Nov-23 01:55 PM
Arrived: 22-Nov-23 03:19 PM
Distance/Time
Traveled:
417nm/1:24
Distance/Time
To Go:
Arrived

Flight Plot

Page will automatically refresh every two minutes.

Flight plan parsing failed; only flown route is shown


Map Options




Map Legend


Flown Route
Filed Route
Departure Airport
Arrival Airport
Navaid (VOR, NDB)
Fix

Horizontal Profiles

Position Reports

Time Latitude Longitude Heading Altitude Ground
Speed
22-Nov-23 13:15 45.585113 -122.577714 211 24ft 0kts
22-Nov-23 13:16 45.585113 -122.577714 211 24ft 0kts
22-Nov-23 13:17 45.585113 -122.577714 211 24ft 0kts
22-Nov-23 13:18 45.585113 -122.577714 211 24ft 0kts
22-Nov-23 13:19 45.585113 -122.577714 211 24ft 0kts
22-Nov-23 13:20 45.585113 -122.577714 211 24ft 0kts
22-Nov-23 13:21 45.585113 -122.577714 211 24ft 0kts
22-Nov-23 13:22 45.585113 -122.577714 211 24ft 0kts
22-Nov-23 13:23 45.585113 -122.577714 211 24ft 0kts
22-Nov-23 13:24 45.585113 -122.577714 211 24ft 0kts
22-Nov-23 13:25 45.585113 -122.577714 211 24ft 0kts
22-Nov-23 13:26 45.585113 -122.577714 211 24ft 0kts
22-Nov-23 13:27 45.585113 -122.577714 211 24ft 0kts
22-Nov-23 13:28 45.585113 -122.577714 211 24ft 0kts
22-Nov-23 13:29 45.585113 -122.577714 211 24ft 0kts
22-Nov-23 13:30 45.585113 -122.577714 211 24ft 0kts
22-Nov-23 13:31 45.585113 -122.577714 211 24ft 0kts
22-Nov-23 13:32 45.585113 -122.577714 211 24ft 0kts
22-Nov-23 13:33 45.585113 -122.577714 211 24ft 0kts
22-Nov-23 13:34 45.585113 -122.577714 211 24ft 0kts
22-Nov-23 13:35 45.585113 -122.577714 211 24ft 0kts
22-Nov-23 13:36 45.585113 -122.577714 211 24ft 0kts
22-Nov-23 13:37 45.585113 -122.577714 211 24ft 0kts
22-Nov-23 13:38 45.585113 -122.577714 211 24ft 0kts
22-Nov-23 13:39 45.585113 -122.577714 211 24ft 0kts
22-Nov-23 13:40 45.585113 -122.577714 211 24ft 0kts
22-Nov-23 13:41 45.585113 -122.577714 211 24ft 0kts
22-Nov-23 13:42 45.585113 -122.577714 211 24ft 0kts
22-Nov-23 13:43 45.585113 -122.577714 211 24ft 0kts
22-Nov-23 13:44 45.585113 -122.577714 211 24ft 0kts
22-Nov-23 13:45 45.585113 -122.577714 211 24ft 0kts
22-Nov-23 13:46 45.585113 -122.577714 211 24ft 0kts
22-Nov-23 13:47 45.585113 -122.577714 211 24ft 0kts
22-Nov-23 13:48 45.585558 -122.577086 37 24ft 7kts
22-Nov-23 13:49 45.587245 -122.579366 302 24ft 13kts
22-Nov-23 13:50 45.589727 -122.585954 296 24ft 24kts
22-Nov-23 13:51 45.593676 -122.595838 302 27ft 31kts
22-Nov-23 13:52 45.594396 -122.597439 3 27ft 0kts
22-Nov-23 13:53 45.594726 -122.595448 121 27ft 0kts
22-Nov-23 13:54 45.580953 -122.555158 100 2195ft 191kts
22-Nov-23 13:55 45.567324 -122.470271 102 6772ft 275kts
22-Nov-23 13:56 45.547251 -122.361230 105 6924ft 283kts
22-Nov-23 13:57 45.477784 -122.309256 171 10543ft 313kts
22-Nov-23 13:58 45.390714 -122.319786 191 14880ft 357kts
22-Nov-23 13:59 45.283744 -122.338004 189 14930ft 390kts
22-Nov-23 14:00 45.175884 -122.355294 190 18802ft 379kts
22-Nov-23 14:01 45.072693 -122.371904 194 23445ft 370kts
22-Nov-23 14:02 44.969676 -122.386489 188 26843ft 383kts
22-Nov-23 14:03 44.860707 -122.351448 171 29339ft 418kts
22-Nov-23 14:04 44.747583 -122.297842 172 31316ft 432kts
22-Nov-23 14:05 44.633553 -122.245110 173 33132ft 436kts
22-Nov-23 14:06 44.516208 -122.191274 172 34665ft 436kts
22-Nov-23 14:07 44.401258 -122.138584 173 36080ft 436kts
22-Nov-23 14:08 44.286068 -122.085914 172 37244ft 437kts
22-Nov-23 14:09 44.170578 -122.033225 172 38296ft 435kts
22-Nov-23 14:10 44.056621 -121.981384 172 39298ft 430kts
22-Nov-23 14:11 43.944006 -121.930308 172 40483ft 418kts
22-Nov-23 14:12 43.830064 -121.893813 184 40557ft 415kts
22-Nov-23 14:13 43.714047 -121.879948 185 40483ft 426kts
22-Nov-23 14:14 43.593723 -121.866885 185 40456ft 437kts
22-Nov-23 14:15 43.472121 -121.854236 185 40430ft 438kts
22-Nov-23 14:16 43.350973 -121.842036 185 40354ft 434kts
22-Nov-23 14:17 43.230931 -121.830253 185 40282ft 435kts
22-Nov-23 14:18 43.110255 -121.818530 185 40335ft 436kts
22-Nov-23 14:19 42.988609 -121.806789 185 40284ft 436kts
22-Nov-23 14:20 42.866825 -121.795111 185 40273ft 436kts
22-Nov-23 14:21 42.745638 -121.783568 185 40271ft 436kts
22-Nov-23 14:22 42.624031 -121.772141 185 40254ft 437kts
22-Nov-23 14:23 42.502292 -121.760692 185 40233ft 438kts
22-Nov-23 14:24 42.380697 -121.749306 185 40174ft 437kts
22-Nov-23 14:25 42.259415 -121.737992 185 40229ft 431kts
22-Nov-23 14:26 42.141555 -121.727584 188 40207ft 422kts
22-Nov-23 14:27 42.024000 -121.726986 188 40183ft 423kts
22-Nov-23 14:28 41.906326 -121.726457 188 40087ft 420kts
22-Nov-23 14:29 41.788786 -121.725906 188 40088ft 421kts
22-Nov-23 14:30 41.671534 -121.725297 188 40130ft 424kts
22-Nov-23 14:31 41.558826 -121.724468 189 39758ft 380kts
22-Nov-23 14:32 41.457056 -121.723915 190 38711ft 356kts
22-Nov-23 14:33 41.357306 -121.723672 189 36820ft 359kts
22-Nov-23 14:34 41.256536 -121.723321 188 34668ft 365kts
22-Nov-23 14:35 41.154028 -121.722832 188 32640ft 364kts
22-Nov-23 14:36 41.053509 -121.722250 187 30879ft 355kts
22-Nov-23 14:37 40.955876 -121.721714 187 29191ft 346kts
22-Nov-23 14:38 40.860659 -121.721265 187 27552ft 335kts
22-Nov-23 14:39 40.767427 -121.720867 187 25634ft 336kts
22-Nov-23 14:40 40.673515 -121.720437 186 24616ft 343kts
22-Nov-23 14:42 40.572967 -121.720026 186 24599ft 373kts
22-Nov-23 14:43 40.468659 -121.719467 186 24614ft 372kts
22-Nov-23 14:44 40.367531 -121.713278 182 23920ft 349kts
22-Nov-23 14:45 40.269383 -121.704788 182 21182ft 355kts
22-Nov-23 14:46 40.171892 -121.696339 182 18653ft 347kts
22-Nov-23 14:47 40.077072 -121.687963 181 16313ft 335kts
22-Nov-23 14:48 39.985037 -121.680487 180 14111ft 321kts
22-Nov-23 14:49 39.899693 -121.673041 180 12553ft 301kts
22-Nov-23 14:50 39.816873 -121.665981 179 11150ft 294kts
22-Nov-23 14:51 39.733996 -121.658901 179 11113ft 297kts
22-Nov-23 14:52 39.651231 -121.651886 179 11125ft 297kts
22-Nov-23 14:53 39.568871 -121.644918 179 11140ft 289kts
22-Nov-23 14:54 39.488924 -121.638207 179 11143ft 286kts
22-Nov-23 14:55 39.409528 -121.631566 179 11022ft 278kts
22-Nov-23 14:56 39.331145 -121.625073 178 9700ft 282kts
22-Nov-23 14:57 39.252396 -121.618483 177 8175ft 277kts
22-Nov-23 14:58 39.176091 -121.612143 176 6697ft 269kts
22-Nov-23 14:59 39.102276 -121.606015 176 5270ft 267kts
22-Nov-23 15:00 39.027130 -121.599813 176 3834ft 260kts
22-Nov-23 15:01 38.956298 -121.597204 180 2988ft 233kts
22-Nov-23 15:02 38.891807 -121.598122 181 3031ft 232kts
22-Nov-23 15:03 38.830714 -121.599134 180 2423ft 203kts
22-Nov-23 15:04 38.784445 -121.599881 180 1578ft 138kts
22-Nov-23 15:05 38.748031 -121.600481 180 866ft 133kts
22-Nov-23 15:06 38.710956 -121.601098 180 253ft 131kts
22-Nov-23 15:07 38.670804 -121.601938 181 1389ft 151kts
22-Nov-23 15:07 38.636664 -121.605090 204 2886ft 155kts
22-Nov-23 15:09 38.674081 -121.640050 345 3455ft 221kts
22-Nov-23 15:10 38.740490 -121.656274 353 3054ft 222kts
22-Nov-23 15:11 38.802144 -121.665467 353 3040ft 222kts
22-Nov-23 15:11 38.854008 -121.673018 353 3045ft 231kts
22-Nov-23 15:12 38.908634 -121.651110 73 3068ft 225kts
22-Nov-23 15:13 38.874025 -121.596282 162 3032ft 217kts
22-Nov-23 15:15 38.805309 -121.599526 180 1944ft 197kts
22-Nov-23 15:15 38.768342 -121.600150 180 1269ft 139kts
22-Nov-23 15:16 38.730189 -121.600796 180 521ft 135kts
22-Nov-23 15:17 38.695150 -121.601273 181 24ft 70kts
22-Nov-23 15:18 38.690566 -121.599865 93 24ft 0kts
22-Nov-23 15:19 38.690375 -121.598912 136 26ft 16kts
22-Nov-23 15:20 38.683446 -121.598851 181 24ft 26kts
22-Nov-23 15:21 38.681472 -121.596790 179 24ft 0kts
22-Nov-23 15:23 38.681472 -121.596790 179 24ft 0kts

Navigation Log

Ident Type
Flight plan parsing failed, navigation log unavailable